createdAt,value
2023-09-06T00:00:48.480Z,1016.98
2023-09-06T00:01:48.443Z,1017.01
2023-09-06T00:02:48.535Z,1016.94
2023-09-06T00:03:48.625Z,1016.93
2023-09-06T00:04:48.692Z,1016.96
2023-09-06T00:05:48.512Z,1016.95
2023-09-06T00:06:48.557Z,1016.98
2023-09-06T00:07:48.548Z,1016.95
2023-09-06T00:08:48.566Z,1017.00
2023-09-06T00:09:48.628Z,1016.96
2023-09-06T00:10:48.605Z,1016.92
2023-09-06T00:11:48.630Z,1016.98
2023-09-06T00:12:48.734Z,1016.93
2023-09-06T00:13:48.662Z,1016.92
2023-09-06T00:14:48.689Z,1016.91
2023-09-06T00:15:48.782Z,1016.91
2023-09-06T00:16:48.728Z,1016.95
2023-09-06T00:17:48.785Z,1016.92
2023-09-06T00:18:48.770Z,1016.93
2023-09-06T00:19:48.783Z,1016.91
2023-09-06T00:20:48.800Z,1016.88
2023-09-06T00:21:48.863Z,1016.93
2023-09-06T00:22:48.835Z,1016.87
2023-09-06T00:23:48.857Z,1016.90
2023-09-06T00:24:48.957Z,1016.89
2023-09-06T00:25:48.895Z,1016.86
2023-09-06T00:26:48.918Z,1016.87
2023-09-06T00:27:49.006Z,1016.88
2023-09-06T00:28:48.952Z,1016.89
2023-09-06T00:29:48.971Z,1016.88
2023-09-06T00:30:49.069Z,1016.90
2023-09-06T00:31:49.076Z,1016.87
2023-09-06T00:32:49.094Z,1016.84
2023-09-06T00:33:49.080Z,1016.86
2023-09-06T00:34:49.066Z,1016.88
2023-09-06T00:35:49.085Z,1016.84
2023-09-06T00:36:49.123Z,1016.87
2023-09-06T00:37:49.122Z,1016.84
2023-09-06T00:38:49.149Z,1016.85
2023-09-06T00:39:49.183Z,1016.85
2023-09-06T00:40:49.182Z,1016.90
2023-09-06T00:41:49.200Z,1016.88
2023-09-06T00:42:49.246Z,1016.90
2023-09-06T00:43:49.238Z,1016.91
2023-09-06T00:44:49.262Z,1016.87
2023-09-06T00:45:49.370Z,1016.90
2023-09-06T00:46:49.306Z,1016.90
2023-09-06T00:47:49.377Z,1016.93
2023-09-06T00:48:49.370Z,1016.93
2023-09-06T00:49:49.351Z,1016.92
2023-09-06T00:50:49.373Z,1016.95
2023-09-06T00:51:49.431Z,1016.94
2023-09-06T00:52:49.427Z,1016.90
2023-09-06T00:53:49.488Z,1016.88
2023-09-06T00:54:49.490Z,1016.87
2023-09-06T00:55:49.473Z,1016.85
2023-09-06T00:56:51.012Z,1016.90
2023-09-06T00:57:49.578Z,1016.90
2023-09-06T00:58:49.530Z,1016.88
2023-09-06T00:59:49.545Z,1016.86
2023-09-06T01:00:49.696Z,1016.90
2023-09-06T01:01:49.689Z,1016.87
2023-09-06T01:02:49.678Z,1016.87
2023-09-06T01:03:49.672Z,1016.82
2023-09-06T01:04:49.641Z,1016.82
2023-09-06T01:05:49.672Z,1016.79
2023-09-06T01:06:49.702Z,1016.83
2023-09-06T01:07:49.697Z,1016.78
2023-09-06T01:08:49.718Z,1016.84
2023-09-06T01:09:49.763Z,1016.83
2023-09-06T01:10:49.800Z,1016.83
2023-09-06T01:11:49.786Z,1016.88
2023-09-06T01:12:49.843Z,1016.85
2023-09-06T01:13:49.820Z,1016.85
2023-09-06T01:14:49.863Z,1016.84
2023-09-06T01:15:49.939Z,1016.89
2023-09-06T01:16:50.028Z,1016.88
2023-09-06T01:17:49.926Z,1016.93
2023-09-06T01:18:49.930Z,1016.92
2023-09-06T01:19:49.926Z,1016.92
2023-09-06T01:20:49.945Z,1016.95
2023-09-06T01:21:49.995Z,1016.92
2023-09-06T01:22:49.985Z,1016.95
2023-09-06T01:23:50.000Z,1016.97
2023-09-06T01:24:50.022Z,1016.96
2023-09-06T01:25:50.048Z,1016.96
2023-09-06T01:26:50.088Z,1016.97
2023-09-06T01:27:50.120Z,1016.96
2023-09-06T01:28:50.095Z,1016.90
2023-09-06T01:29:50.114Z,1016.95
2023-09-06T01:30:50.261Z,1016.93
2023-09-06T01:31:50.185Z,1016.92
2023-09-06T01:32:50.271Z,1016.90
2023-09-06T01:33:50.235Z,1016.90
2023-09-06T01:34:50.207Z,1016.92
2023-09-06T01:35:50.236Z,1016.93
2023-09-06T01:36:50.292Z,1016.93
2023-09-06T01:37:50.266Z,1016.93
2023-09-06T01:38:50.289Z,1016.94
2023-09-06T01:39:50.332Z,1016.89
2023-09-06T01:40:50.342Z,1016.93
2023-09-06T01:41:50.348Z,1016.88
2023-09-06T01:42:50.403Z,1016.95
2023-09-06T01:43:50.379Z,1016.91
2023-09-06T01:44:50.427Z,1016.93
2023-09-06T01:45:50.484Z,1016.91
2023-09-06T01:46:50.479Z,1016.87
2023-09-06T01:47:50.475Z,1016.86
2023-09-06T01:48:50.501Z,1016.92
2023-09-06T01:49:50.494Z,1016.87
2023-09-06T01:50:50.512Z,1016.88
2023-09-06T01:51:50.609Z,1016.86
2023-09-06T01:52:50.548Z,1016.86
2023-09-06T01:53:50.567Z,1016.89
2023-09-06T01:54:50.603Z,1016.88
2023-09-06T01:55:50.610Z,1016.91
2023-09-06T01:56:50.628Z,1016.86
2023-09-06T01:57:50.695Z,1016.85
2023-09-06T01:58:50.665Z,1016.85
2023-09-06T01:59:50.681Z,1016.85
2023-09-06T02:00:50.707Z,1016.84
2023-09-06T02:01:50.756Z,1016.86
2023-09-06T02:02:50.812Z,1016.85
2023-09-06T02:03:50.921Z,1016.82
2023-09-06T02:04:50.776Z,1016.83
2023-09-06T02:05:50.793Z,1016.82
2023-09-06T02:06:50.856Z,1016.84
2023-09-06T02:07:50.828Z,1016.83
2023-09-06T02:08:50.852Z,1016.78
2023-09-06T02:09:50.884Z,1016.78
2023-09-06T02:10:50.894Z,1016.79
2023-09-06T02:11:50.905Z,1016.76
2023-09-06T02:12:50.942Z,1016.74
2023-09-06T02:13:50.943Z,1016.74
2023-09-06T02:14:50.964Z,1016.72
2023-09-06T02:15:51.064Z,1016.69
2023-09-06T02:16:51.003Z,1016.70
2023-09-06T02:17:51.108Z,1016.72
2023-09-06T02:18:51.061Z,1016.68
2023-09-06T02:19:51.057Z,1016.65
2023-09-06T02:20:51.074Z,1016.70
2023-09-06T02:21:51.103Z,1016.72
2023-09-06T02:22:51.110Z,1016.68
2023-09-06T02:23:51.130Z,1016.67
2023-09-06T02:24:51.191Z,1016.69
2023-09-06T02:25:51.166Z,1016.72
2023-09-06T02:26:51.184Z,1016.72
2023-09-06T02:27:51.229Z,1016.69
2023-09-06T02:28:51.222Z,1016.72
2023-09-06T02:29:51.243Z,1016.71
2023-09-06T02:30:51.259Z,1016.74
2023-09-06T02:31:51.307Z,1016.78
2023-09-06T02:32:51.354Z,1016.80
2023-09-06T02:33:51.341Z,1016.78
2023-09-06T02:34:51.340Z,1016.78
2023-09-06T02:35:51.355Z,1016.77
2023-09-06T02:36:51.391Z,1016.78
2023-09-06T02:37:51.389Z,1016.78
2023-09-06T02:38:51.410Z,1016.74
2023-09-06T02:39:51.426Z,1016.77
2023-09-06T02:40:51.452Z,1016.74
2023-09-06T02:41:51.461Z,1016.75
2023-09-06T02:42:51.498Z,1016.76
2023-09-06T02:43:51.500Z,1016.76
2023-09-06T02:44:51.521Z,1016.77
2023-09-06T02:45:51.787Z,1016.78
2023-09-06T02:46:51.563Z,1016.76
2023-09-06T02:47:51.746Z,1016.72
2023-09-06T02:48:51.593Z,1016.73
2023-09-06T02:49:51.613Z,1016.76
2023-09-06T02:50:51.644Z,1016.75
2023-09-06T02:51:51.647Z,1016.75
2023-09-06T02:52:51.667Z,1016.74
2023-09-06T02:53:51.687Z,1016.73
2023-09-06T02:54:51.768Z,1016.74
2023-09-06T02:55:51.737Z,1016.79
2023-09-06T02:56:51.758Z,1016.80
2023-09-06T02:57:51.828Z,1016.80
2023-09-06T02:58:51.794Z,1016.84
2023-09-06T02:59:51.816Z,1016.88
2023-09-06T03:00:51.886Z,1016.89
2023-09-06T03:01:51.906Z,1016.93
2023-09-06T03:02:51.997Z,1016.92
2023-09-06T03:03:52.054Z,1016.93
2023-09-06T03:04:51.890Z,1016.94
2023-09-06T03:05:51.938Z,1016.96
2023-09-06T03:06:51.977Z,1016.97
2023-09-06T03:07:51.940Z,1016.97
2023-09-06T03:08:51.960Z,1016.99
2023-09-06T03:09:52.020Z,1016.99
2023-09-06T03:10:51.996Z,1017.03
2023-09-06T03:11:52.012Z,1017.03
2023-09-06T03:12:52.071Z,1017.02
2023-09-06T03:13:52.052Z,1017.02
2023-09-06T03:14:52.070Z,1017.04
2023-09-06T03:15:52.152Z,1017.05
2023-09-06T03:16:52.138Z,1017.06
2023-09-06T03:17:52.183Z,1017.07
2023-09-06T03:18:52.145Z,1017.04
2023-09-06T03:19:52.165Z,1017.10
2023-09-06T03:20:52.176Z,1017.06
2023-09-06T03:21:52.198Z,1017.07
2023-09-06T03:22:52.213Z,1017.08
2023-09-06T03:23:52.228Z,1017.06
2023-09-06T03:24:52.252Z,1017.11
2023-09-06T03:25:52.270Z,1017.09
2023-09-06T03:26:52.283Z,1017.12
2023-09-06T03:27:52.302Z,1017.14
2023-09-06T03:28:52.322Z,1017.15
2023-09-06T03:29:52.536Z,1017.15
2023-09-06T03:30:52.361Z,1017.10
2023-09-06T03:31:52.435Z,1017.11
2023-09-06T03:32:52.421Z,1017.11
2023-09-06T03:33:52.419Z,1017.09
2023-09-06T03:34:52.432Z,1017.06
2023-09-06T03:35:52.466Z,1017.10
2023-09-06T03:36:52.469Z,1017.05
2023-09-06T03:37:52.549Z,1017.08
2023-09-06T03:38:52.511Z,1017.10
2023-09-06T03:39:52.524Z,1017.15
2023-09-06T03:40:52.564Z,1017.10
2023-09-06T03:41:52.558Z,1017.15
2023-09-06T03:42:52.573Z,1017.16
2023-09-06T03:43:52.624Z,1017.18
2023-09-06T03:44:52.616Z,1017.22
2023-09-06T03:45:53.192Z,1017.18
2023-09-06T03:46:52.838Z,1017.22
2023-09-06T03:47:52.802Z,1017.22
2023-09-06T03:48:52.751Z,1017.20
2023-09-06T03:49:52.711Z,1017.19
2023-09-06T03:50:52.743Z,1017.19
2023-09-06T03:51:52.738Z,1017.23
2023-09-06T03:52:52.803Z,1017.22
2023-09-06T03:53:52.774Z,1017.23
2023-09-06T03:54:52.802Z,1017.24
2023-09-06T03:55:52.864Z,1017.26
2023-09-06T03:56:52.830Z,1017.27
2023-09-06T03:57:52.844Z,1017.28
2023-09-06T03:58:52.864Z,1017.23
2023-09-06T03:59:52.882Z,1017.27
2023-09-06T04:00:53.018Z,1017.26
2023-09-06T04:01:53.103Z,1017.27
2023-09-06T04:02:53.083Z,1017.31
2023-09-06T04:03:53.001Z,1017.29
2023-09-06T04:04:53.025Z,1017.31
2023-09-06T04:05:52.991Z,1017.32
2023-09-06T04:06:53.009Z,1017.33
2023-09-06T04:07:53.068Z,1017.32
2023-09-06T04:08:53.111Z,1017.34
2023-09-06T04:09:53.063Z,1017.32
2023-09-06T04:10:53.093Z,1017.31
2023-09-06T04:11:53.106Z,1017.36
2023-09-06T04:12:53.155Z,1017.32
2023-09-06T04:13:53.135Z,1017.38
2023-09-06T04:14:53.157Z,1017.37
2023-09-06T04:15:53.176Z,1017.35
2023-09-06T04:16:53.239Z,1017.41
2023-09-06T04:17:53.251Z,1017.39
2023-09-06T04:18:53.277Z,1017.38
2023-09-06T04:19:53.245Z,1017.42
2023-09-06T04:20:53.265Z,1017.41
2023-09-06T04:21:53.279Z,1017.42
2023-09-06T04:22:53.320Z,1017.44
2023-09-06T04:23:53.329Z,1017.44
2023-09-06T04:24:53.337Z,1017.45
2023-09-06T04:25:53.372Z,1017.46
2023-09-06T04:26:53.383Z,1017.43
2023-09-06T04:27:53.389Z,1017.47
2023-09-06T04:28:53.428Z,1017.47
2023-09-06T04:29:53.424Z,1017.46
2023-09-06T04:30:53.481Z,1017.49
2023-09-06T04:31:53.501Z,1017.49
2023-09-06T04:32:53.514Z,1017.52
2023-09-06T04:33:53.497Z,1017.50
2023-09-06T04:34:53.560Z,1017.52
2023-09-06T04:35:53.534Z,1017.53
2023-09-06T04:36:53.551Z,1017.51
2023-09-06T04:37:53.593Z,1017.57
2023-09-06T04:38:53.595Z,1017.55
2023-09-06T04:39:53.604Z,1017.56
2023-09-06T04:40:53.676Z,1017.56
2023-09-06T04:41:53.655Z,1017.56
2023-09-06T04:42:53.662Z,1017.57
2023-09-06T04:43:53.714Z,1017.54
2023-09-06T04:44:53.701Z,1017.57
2023-09-06T04:45:53.742Z,1017.54
2023-09-06T04:46:53.795Z,1017.57
2023-09-06T04:47:53.806Z,1017.60
2023-09-06T04:48:53.803Z,1017.61
2023-09-06T04:49:53.795Z,1017.63
2023-09-06T04:50:53.856Z,1017.64
2023-09-06T04:51:53.845Z,1017.64
2023-09-06T04:52:53.845Z,1017.67
2023-09-06T04:53:53.859Z,1017.64
2023-09-06T04:54:53.871Z,1017.65
2023-09-06T04:55:53.904Z,1017.62
2023-09-06T04:56:53.917Z,1017.68
2023-09-06T04:57:53.930Z,1017.70
2023-09-06T04:58:53.945Z,1017.69
2023-09-06T04:59:53.963Z,1017.65
2023-09-06T05:00:54.101Z,1017.68
2023-09-06T05:01:54.018Z,1017.65
2023-09-06T05:02:54.120Z,1017.64
2023-09-06T05:03:54.116Z,1017.62
2023-09-06T05:04:54.079Z,1017.65
2023-09-06T05:05:54.074Z,1017.68
2023-09-06T05:06:54.092Z,1017.65
2023-09-06T05:07:54.110Z,1017.66
2023-09-06T05:08:54.125Z,1017.68
2023-09-06T05:09:54.142Z,1017.64
2023-09-06T05:10:54.157Z,1017.68
2023-09-06T05:11:54.186Z,1017.67
2023-09-06T05:12:54.202Z,1017.63
2023-09-06T05:13:54.281Z,1017.68
2023-09-06T05:14:54.247Z,1017.67
2023-09-06T05:15:54.274Z,1017.71
2023-09-06T05:16:54.343Z,1017.75
2023-09-06T05:17:54.372Z,1017.74
2023-09-06T05:18:54.372Z,1017.73
2023-09-06T05:19:54.326Z,1017.74
2023-09-06T05:20:54.340Z,1017.72
2023-09-06T05:21:54.358Z,1017.71
2023-09-06T05:22:54.417Z,1017.71
2023-09-06T05:23:54.398Z,1017.70
2023-09-06T05:24:54.441Z,1017.72
2023-09-06T05:25:54.431Z,1017.66
2023-09-06T05:26:54.463Z,1017.72
2023-09-06T05:27:54.488Z,1017.70
2023-09-06T05:28:54.488Z,1017.69
2023-09-06T05:29:54.504Z,1017.70
2023-09-06T05:30:54.578Z,1017.68
2023-09-06T05:31:54.549Z,1017.70
2023-09-06T05:32:54.593Z,1017.72
2023-09-06T05:33:54.667Z,1017.73
2023-09-06T05:34:54.597Z,1017.72
2023-09-06T05:35:54.614Z,1017.73
2023-09-06T05:36:54.634Z,1017.80
2023-09-06T05:37:54.680Z,1017.75
2023-09-06T05:38:54.668Z,1017.75
2023-09-06T05:39:54.686Z,1017.77
2023-09-06T05:40:54.763Z,1017.74
2023-09-06T05:41:54.722Z,1017.80
2023-09-06T05:42:54.745Z,1017.79
2023-09-06T05:43:54.836Z,1017.79
2023-09-06T05:44:54.781Z,1017.83
2023-09-06T05:45:54.876Z,1017.82
2023-09-06T05:46:54.913Z,1017.79
2023-09-06T05:47:54.898Z,1017.77
2023-09-06T05:48:54.853Z,1017.78
2023-09-06T05:49:54.901Z,1017.78
2023-09-06T05:50:54.891Z,1017.80
2023-09-06T05:51:54.911Z,1017.78
2023-09-06T05:52:54.923Z,1017.75
2023-09-06T05:53:54.986Z,1017.76
2023-09-06T05:54:55.960Z,1017.79
2023-09-06T05:55:55.050Z,1017.81
2023-09-06T05:56:54.999Z,1017.81
2023-09-06T05:57:55.028Z,1017.83
2023-09-06T05:58:55.037Z,1017.84
2023-09-06T05:59:55.055Z,1017.89
2023-09-06T06:00:55.078Z,1017.87
2023-09-06T06:01:55.217Z,1017.91
2023-09-06T06:02:55.137Z,1017.94
2023-09-06T06:03:55.168Z,1017.95
2023-09-06T06:04:55.177Z,1017.96
2023-09-06T06:05:55.187Z,1017.96
2023-09-06T06:06:55.185Z,1017.96
2023-09-06T06:07:55.207Z,1017.97
2023-09-06T06:08:55.265Z,1018.00
2023-09-06T06:09:55.244Z,1018.03
2023-09-06T06:10:55.308Z,1018.02
2023-09-06T06:11:55.279Z,1018.01
2023-09-06T06:12:55.305Z,1018.01
2023-09-06T06:14:04.914Z,1017.97
2023-09-06T06:14:55.340Z,1017.98
2023-09-06T06:15:55.368Z,1017.92
2023-09-06T06:16:55.423Z,1017.97
2023-09-06T06:17:55.427Z,1017.97
2023-09-06T06:18:55.414Z,1017.97
2023-09-06T06:19:55.526Z,1017.95
2023-09-06T06:20:55.476Z,1017.97
2023-09-06T06:21:56.153Z,1017.95
2023-09-06T06:22:55.488Z,1017.97
2023-09-06T06:23:55.511Z,1017.98
2023-09-06T06:24:55.563Z,1017.98
2023-09-06T06:25:55.547Z,1017.95
2023-09-06T06:26:55.576Z,1017.94
2023-09-06T06:27:55.748Z,1017.98
2023-09-06T06:28:55.753Z,1017.96
2023-09-06T06:29:55.652Z,1017.93
2023-09-06T06:30:55.646Z,1017.93
2023-09-06T06:31:55.723Z,1017.97
2023-09-06T06:32:55.785Z,1017.96
2023-09-06T06:33:55.701Z,1017.97
2023-09-06T06:34:55.727Z,1017.98
2023-09-06T06:35:55.790Z,1017.99
2023-09-06T06:36:55.760Z,1017.98
2023-09-06T06:37:55.814Z,1017.96
2023-09-06T06:38:55.794Z,1017.99
2023-09-06T06:39:55.812Z,1018.02
2023-09-06T06:40:55.873Z,1018.04
2023-09-06T06:41:55.853Z,1018.02
2023-09-06T06:42:55.870Z,1018.02
2023-09-06T06:43:55.993Z,1018.02
2023-09-06T06:44:55.909Z,1018.01
2023-09-06T06:45:55.980Z,1018.05
2023-09-06T06:46:56.000Z,1018.03
2023-09-06T06:47:56.007Z,1018.03
2023-09-06T06:48:56.017Z,1018.04
2023-09-06T06:49:56.191Z,1018.01
2023-09-06T06:50:56.030Z,1018.03
2023-09-06T06:51:56.044Z,1018.00
2023-09-06T06:52:56.089Z,1018.01
2023-09-06T06:53:56.108Z,1018.01
2023-09-06T06:54:56.106Z,1018.04
2023-09-06T06:55:56.172Z,1018.04
2023-09-06T06:56:56.144Z,1018.04
2023-09-06T06:57:56.166Z,1018.04
2023-09-06T06:58:56.220Z,1018.07
2023-09-06T06:59:56.212Z,1018.06
2023-09-06T07:00:56.248Z,1018.02
2023-09-06T07:01:56.321Z,1018.01
2023-09-06T07:02:56.294Z,1018.03
2023-09-06T07:03:56.373Z,1018.06
2023-09-06T07:04:57.986Z,1018.02
2023-09-06T07:05:56.325Z,1018.02
2023-09-06T07:06:56.351Z,1018.01
2023-09-06T07:07:56.377Z,1018.03
2023-09-06T07:08:56.387Z,1018.07
2023-09-06T07:09:56.415Z,1018.05
2023-09-06T07:10:56.440Z,1018.04
2023-09-06T07:11:56.451Z,1018.08
2023-09-06T07:12:56.473Z,1018.11
2023-09-06T07:13:56.522Z,1018.12
2023-09-06T07:14:56.519Z,1018.15
2023-09-06T07:15:56.576Z,1018.16
2023-09-06T07:16:56.598Z,1018.17
2023-09-06T07:17:56.684Z,1018.17
2023-09-06T07:18:56.601Z,1018.13
2023-09-06T07:19:56.672Z,1018.22
2023-09-06T07:20:56.645Z,1018.18
2023-09-06T07:21:56.664Z,1018.16
2023-09-06T07:22:56.735Z,1018.20
2023-09-06T07:23:56.709Z,1018.20
2023-09-06T07:24:56.767Z,1018.18
2023-09-06T07:25:56.825Z,1018.24
2023-09-06T07:26:56.783Z,1018.27
2023-09-06T07:27:56.796Z,1018.25
2023-09-06T07:28:56.904Z,1018.25
2023-09-06T07:29:56.842Z,1018.26
2023-09-06T07:30:56.931Z,1018.30
2023-09-06T07:31:56.886Z,1018.29
2023-09-06T07:32:57.068Z,1018.26
2023-09-06T07:33:56.940Z,1018.22
2023-09-06T07:34:57.006Z,1018.27
2023-09-06T07:35:56.973Z,1018.24
2023-09-06T07:36:56.999Z,1018.26
2023-09-06T07:37:57.073Z,1018.24
2023-09-06T07:38:57.093Z,1018.20
2023-09-06T07:39:57.065Z,1018.19
2023-09-06T07:40:57.132Z,1018.18
2023-09-06T07:41:57.122Z,1018.20
2023-09-06T07:42:57.136Z,1018.19
2023-09-06T07:43:57.191Z,1018.17
2023-09-06T07:44:57.178Z,1018.16
2023-09-06T07:45:57.213Z,1018.16
2023-09-06T07:46:57.349Z,1018.17
2023-09-06T07:47:57.440Z,1018.17
2023-09-06T07:48:57.497Z,1018.18
2023-09-06T07:49:57.310Z,1018.14
2023-09-06T07:50:57.320Z,1018.13
2023-09-06T07:51:57.347Z,1018.12
2023-09-06T07:52:57.370Z,1018.13
2023-09-06T07:53:57.398Z,1018.13
2023-09-06T07:54:57.419Z,1018.07
2023-09-06T07:55:57.483Z,1018.14
2023-09-06T07:56:57.482Z,1018.12
2023-09-06T07:57:57.496Z,1018.17
2023-09-06T07:58:57.545Z,1018.18
2023-09-06T07:59:57.559Z,1018.20
2023-09-06T08:01:15.026Z,1018.20
2023-09-06T08:01:57.685Z,1018.25
2023-09-06T08:02:57.708Z,1018.27
2023-09-06T08:03:57.815Z,1018.27
2023-09-06T08:04:57.777Z,1018.28
2023-09-06T08:05:57.785Z,1018.34
2023-09-06T08:06:57.749Z,1018.35
2023-09-06T08:07:57.728Z,1018.32
2023-09-06T08:08:57.776Z,1018.35
2023-09-06T08:09:57.783Z,1018.36
2023-09-06T08:10:57.797Z,1018.37
2023-09-06T08:11:57.978Z,1018.36
2023-09-06T08:12:57.847Z,1018.36
2023-09-06T08:13:57.870Z,1018.35
2023-09-06T08:14:57.911Z,1018.34
2023-09-06T08:15:57.917Z,1018.38
2023-09-06T08:16:58.025Z,1018.36
2023-09-06T08:17:58.028Z,1018.39
2023-09-06T08:18:57.996Z,1018.41
2023-09-06T08:19:58.010Z,1018.35
2023-09-06T08:20:58.079Z,1018.37
2023-09-06T08:21:58.058Z,1018.33
2023-09-06T08:22:58.085Z,1018.35
2023-09-06T08:23:58.158Z,1018.35
2023-09-06T08:24:58.139Z,1018.37
2023-09-06T08:25:58.150Z,1018.35
2023-09-06T08:26:58.189Z,1018.37
2023-09-06T08:27:58.198Z,1018.38
2023-09-06T08:28:58.228Z,1018.39
2023-09-06T08:29:58.290Z,1018.41
2023-09-06T08:30:58.366Z,1018.37
2023-09-06T08:31:58.365Z,1018.43
2023-09-06T08:32:58.345Z,1018.41
2023-09-06T08:33:58.426Z,1018.40
2023-09-06T08:34:58.360Z,1018.42
2023-09-06T08:35:58.391Z,1018.40
2023-09-06T08:36:58.405Z,1018.42
2023-09-06T08:37:58.435Z,1018.38
2023-09-06T08:38:58.449Z,1018.41
2023-09-06T08:39:58.496Z,1018.35
2023-09-06T08:40:58.509Z,1018.36
2023-09-06T08:41:58.559Z,1018.39
2023-09-06T08:42:58.544Z,1018.38
2023-09-06T08:43:58.568Z,1018.40
2023-09-06T08:44:58.591Z,1018.39
2023-09-06T08:45:59.253Z,1018.39
2023-09-06T08:46:58.703Z,1018.41
2023-09-06T08:47:58.736Z,1018.41
2023-09-06T08:48:58.814Z,1018.38
2023-09-06T08:49:58.709Z,1018.41
2023-09-06T08:50:58.734Z,1018.41
2023-09-06T08:51:58.756Z,1018.42
2023-09-06T08:52:58.781Z,1018.46
2023-09-06T08:53:58.824Z,1018.45
2023-09-06T08:54:58.857Z,1018.45
2023-09-06T08:55:58.875Z,1018.40
2023-09-06T08:56:58.876Z,1018.43
2023-09-06T08:57:58.895Z,1018.40
2023-09-06T08:58:58.923Z,1018.40
2023-09-06T08:59:58.941Z,1018.37
2023-09-06T09:00:59.062Z,1018.41
2023-09-06T09:01:59.041Z,1018.41
2023-09-06T09:02:59.126Z,1018.41
2023-09-06T09:03:59.136Z,1018.43
2023-09-06T09:05:13.698Z,1018.43
2023-09-06T09:05:59.082Z,1018.40
2023-09-06T09:06:59.184Z,1018.38
2023-09-06T09:07:59.129Z,1018.39
2023-09-06T09:08:59.153Z,1018.42
2023-09-06T09:09:59.189Z,1018.37
2023-09-06T09:10:59.204Z,1018.41
2023-09-06T09:11:59.227Z,1018.36
2023-09-06T09:12:59.292Z,1018.41
2023-09-06T09:13:59.271Z,1018.43
2023-09-06T09:15:04.441Z,1018.42
2023-09-06T09:15:59.375Z,1018.44
2023-09-06T09:16:59.379Z,1018.42
2023-09-06T09:18:01.506Z,1018.40
2023-09-06T09:18:59.459Z,1018.43
2023-09-06T09:19:59.414Z,1018.42
2023-09-06T09:20:59.440Z,1018.41
2023-09-06T09:21:59.462Z,1018.42
2023-09-06T09:22:59.598Z,1018.43
2023-09-06T09:23:59.511Z,1018.42
2023-09-06T09:24:59.672Z,1018.41
2023-09-06T09:25:59.568Z,1018.44
2023-09-06T09:26:59.589Z,1018.42
2023-09-06T09:28:00.170Z,1018.44
2023-09-06T09:28:59.627Z,1018.42
2023-09-06T09:30:00.946Z,1018.46
2023-09-06T09:30:59.739Z,1018.47
2023-09-06T09:31:59.703Z,1018.47
2023-09-06T09:32:59.926Z,1018.48
2023-09-06T09:33:59.747Z,1018.45
2023-09-06T09:34:59.772Z,1018.49
2023-09-06T09:35:59.834Z,1018.46
2023-09-06T09:36:59.818Z,1018.50
2023-09-06T09:37:59.842Z,1018.48
2023-09-06T09:38:59.899Z,1018.49
2023-09-06T09:39:59.895Z,1018.51
2023-09-06T09:40:59.918Z,1018.47
2023-09-06T09:42:00.220Z,1018.49
2023-09-06T09:42:59.978Z,1018.51
2023-09-06T09:43:59.995Z,1018.48
2023-09-06T09:45:00.056Z,1018.46
2023-09-06T09:46:00.079Z,1018.44
2023-09-06T09:47:03.435Z,1018.50
2023-09-06T09:48:00.096Z,1018.48
2023-09-06T09:49:00.112Z,1018.50
2023-09-06T09:50:00.185Z,1018.47
2023-09-06T09:51:00.165Z,1018.48
2023-09-06T09:52:00.192Z,1018.48
2023-09-06T09:53:08.090Z,1018.46
2023-09-06T09:54:00.239Z,1018.46
2023-09-06T09:55:00.284Z,1018.49
2023-09-06T09:56:00.280Z,1018.48
2023-09-06T09:57:00.312Z,1018.48
2023-09-06T09:58:00.331Z,1018.42
2023-09-06T09:59:00.402Z,1018.47
2023-09-06T10:00:00.450Z,1018.45
2023-09-06T10:01:01.776Z,1018.50
2023-09-06T10:02:00.490Z,1018.46
2023-09-06T10:03:00.617Z,1018.47
2023-09-06T10:04:00.565Z,1018.46
2023-09-06T10:05:00.694Z,1018.48
2023-09-06T10:06:00.529Z,1018.46
2023-09-06T10:07:00.550Z,1018.46
2023-09-06T10:08:00.575Z,1018.50
2023-09-06T10:09:00.606Z,1018.44
2023-09-06T10:10:00.625Z,1018.45
2023-09-06T10:11:00.650Z,1018.44
2023-09-06T10:12:00.675Z,1018.47
2023-09-06T10:13:00.738Z,1018.50
2023-09-06T10:14:00.727Z,1018.48
2023-09-06T10:15:00.753Z,1018.46
2023-09-06T10:16:00.875Z,1018.47
2023-09-06T10:17:00.801Z,1018.48
2023-09-06T10:18:00.897Z,1018.46
2023-09-06T10:19:00.882Z,1018.47
2023-09-06T10:20:00.882Z,1018.44
2023-09-06T10:21:00.900Z,1018.41
2023-09-06T10:22:00.924Z,1018.44
2023-09-06T10:23:00.957Z,1018.46
2023-09-06T10:24:00.975Z,1018.51
2023-09-06T10:25:00.999Z,1018.50
2023-09-06T10:26:01.022Z,1018.50
2023-09-06T10:27:01.049Z,1018.51
2023-09-06T10:28:01.078Z,1018.48
2023-09-06T10:29:01.113Z,1018.52
2023-09-06T10:30:05.062Z,1018.52
2023-09-06T10:31:01.160Z,1018.52
2023-09-06T10:32:01.190Z,1018.56
2023-09-06T10:33:01.246Z,1018.55
2023-09-06T10:34:01.225Z,1018.51
2023-09-06T10:35:01.255Z,1018.56
2023-09-06T10:36:01.328Z,1018.55
2023-09-06T10:37:01.324Z,1018.57
2023-09-06T10:38:01.337Z,1018.58
2023-09-06T10:39:01.358Z,1018.59
2023-09-06T10:40:01.431Z,1018.56
2023-09-06T10:41:01.412Z,1018.58
2023-09-06T10:42:01.456Z,1018.60
2023-09-06T10:43:01.462Z,1018.57
2023-09-06T10:44:01.508Z,1018.49
2023-09-06T10:45:01.533Z,1018.46
2023-09-06T10:46:01.596Z,1018.47
2023-09-06T10:47:01.648Z,1018.48
2023-09-06T10:48:01.687Z,1018.44
2023-09-06T10:49:01.718Z,1018.43
2023-09-06T10:50:01.668Z,1018.43
2023-09-06T10:51:01.684Z,1018.47
2023-09-06T10:52:01.832Z,1018.50
2023-09-06T10:53:01.754Z,1018.49
2023-09-06T10:54:01.772Z,1018.46
2023-09-06T10:55:01.878Z,1018.45
2023-09-06T10:56:01.836Z,1018.45
2023-09-06T10:57:03.179Z,1018.41
2023-09-06T10:58:01.893Z,1018.43
2023-09-06T10:59:01.925Z,1018.40
2023-09-06T11:00:01.982Z,1018.40
2023-09-06T11:01:02.038Z,1018.38
2023-09-06T11:02:02.066Z,1018.35
2023-09-06T11:03:02.181Z,1018.35
2023-09-06T11:04:02.099Z,1018.34
2023-09-06T11:05:02.150Z,1018.32
2023-09-06T11:06:02.154Z,1018.32
2023-09-06T11:07:02.208Z,1018.32
2023-09-06T11:08:02.311Z,1018.33
2023-09-06T11:09:02.255Z,1018.33
2023-09-06T11:10:02.348Z,1018.28
2023-09-06T11:11:02.337Z,1018.20
2023-09-06T11:12:02.356Z,1018.24
2023-09-06T11:13:02.438Z,1018.22
2023-09-06T11:14:02.427Z,1018.18
2023-09-06T11:15:02.475Z,1018.19
2023-09-06T11:16:02.568Z,1018.18
2023-09-06T11:17:02.558Z,1018.18
2023-09-06T11:18:02.600Z,1018.21
2023-09-06T11:19:02.601Z,1018.25
2023-09-06T11:20:02.637Z,1018.24
2023-09-06T11:21:02.688Z,1018.23
2023-09-06T11:22:02.702Z,1018.24
2023-09-06T11:23:02.732Z,1018.20
2023-09-06T11:24:02.762Z,1018.18
2023-09-06T11:25:02.797Z,1018.23
2023-09-06T11:26:02.829Z,1018.20
2023-09-06T11:27:02.861Z,1018.22
2023-09-06T11:28:03.045Z,1018.22
2023-09-06T11:29:02.922Z,1018.20
2023-09-06T11:30:02.960Z,1018.24
2023-09-06T11:31:03.051Z,1018.27
2023-09-06T11:32:03.016Z,1018.32
2023-09-06T11:33:03.097Z,1018.31
2023-09-06T11:34:03.120Z,1018.30
2023-09-06T11:35:03.107Z,1018.28
2023-09-06T11:36:03.137Z,1018.28
2023-09-06T11:37:03.212Z,1018.25
2023-09-06T11:38:03.206Z,1018.25
2023-09-06T11:39:03.233Z,1018.21
2023-09-06T11:40:03.303Z,1018.19
2023-09-06T11:41:03.309Z,1018.16
2023-09-06T11:42:03.333Z,1018.14
2023-09-06T11:43:03.363Z,1018.17
2023-09-06T11:44:03.408Z,1018.14
2023-09-06T11:45:03.432Z,1018.10
2023-09-06T11:46:03.527Z,1018.11
2023-09-06T11:47:03.629Z,1018.09
2023-09-06T11:48:03.582Z,1018.08
2023-09-06T11:49:03.572Z,1018.07
2023-09-06T11:50:03.615Z,1018.05
2023-09-06T11:51:03.637Z,1018.07
2023-09-06T11:52:03.725Z,1018.08
2023-09-06T11:53:03.747Z,1018.03
2023-09-06T11:54:03.737Z,1018.10
2023-09-06T11:55:03.773Z,1018.10
2023-09-06T11:56:03.809Z,1018.06
2023-09-06T11:57:03.875Z,1018.05
2023-09-06T11:58:03.883Z,1018.09
2023-09-06T11:59:03.919Z,1018.03
2023-09-06T12:00:03.956Z,1018.05
2023-09-06T12:01:04.076Z,1018.02
2023-09-06T12:02:04.034Z,1017.99
2023-09-06T12:03:04.135Z,1017.97
2023-09-06T12:04:04.180Z,1017.97
2023-09-06T12:05:04.132Z,1018.03
2023-09-06T12:06:04.168Z,1018.05